createdAt,value
2018-10-19T00:00:18.190Z,10.17
2018-10-19T00:02:46.590Z,10.20
2018-10-19T00:05:15.000Z,8.93
2018-10-19T00:07:43.339Z,9.63
2018-10-19T00:10:12.733Z,8.90
2018-10-19T00:12:41.106Z,10.27
2018-10-19T00:15:09.595Z,10.30
2018-10-19T00:17:37.971Z,9.77
2018-10-19T00:20:07.005Z,7.63
2018-10-19T00:22:35.506Z,11.70
2018-10-19T00:25:04.103Z,9.00
2018-10-19T00:27:32.519Z,12.53
2018-10-19T00:30:00.928Z,8.07
2018-10-19T00:32:29.371Z,11.40
2018-10-19T00:34:57.785Z,9.97
2018-10-19T00:37:26.198Z,15.23
2018-10-19T00:39:54.581Z,8.80
2018-10-19T00:42:23.021Z,11.60
2018-10-19T00:44:51.432Z,9.23
2018-10-19T00:47:19.961Z,9.17
2018-10-19T00:49:48.389Z,8.90
2018-10-19T00:52:16.783Z,8.70
2018-10-19T00:54:45.208Z,10.97
2018-10-19T00:57:13.660Z,9.80
2018-10-19T00:59:42.265Z,10.33
2018-10-19T01:02:10.654Z,10.20
2018-10-19T01:04:39.045Z,13.80
2018-10-19T01:07:07.432Z,12.33
2018-10-19T01:09:35.864Z,11.40
2018-10-19T01:12:04.237Z,8.13
2018-10-19T01:14:32.719Z,10.63
2018-10-19T01:17:01.169Z,10.80
2018-10-19T01:19:29.589Z,9.60
2018-10-19T01:21:57.966Z,11.53
2018-10-19T01:24:26.399Z,9.90
2018-10-19T01:26:54.859Z,12.87
2018-10-19T01:29:23.276Z,9.87
2018-10-19T01:31:51.696Z,15.40
2018-10-19T01:34:20.090Z,12.03
2018-10-19T01:36:48.469Z,10.30
2018-10-19T01:39:16.874Z,12.40
2018-10-19T01:41:45.257Z,13.30
2018-10-19T01:44:13.661Z,15.07
2018-10-19T01:46:49.135Z,13.83
2018-10-19T01:49:18.602Z,12.70
2018-10-19T01:51:47.029Z,13.97
2018-10-19T01:54:15.447Z,11.90
2018-10-19T01:56:43.944Z,11.60
2018-10-19T01:59:12.386Z,12.00
2018-10-19T02:01:40.809Z,14.30
2018-10-19T02:04:09.231Z,15.90
2018-10-19T02:06:37.617Z,13.20
2018-10-19T02:09:07.536Z,17.00
2018-10-19T02:11:36.055Z,12.20
2018-10-19T02:14:04.582Z,17.07
2018-10-19T02:16:33.014Z,19.37
2018-10-19T02:19:01.439Z,15.53
2018-10-19T02:21:29.853Z,17.23
2018-10-19T02:23:58.274Z,16.20
2018-10-19T02:26:26.671Z,17.00
2018-10-19T02:28:55.154Z,15.83
2018-10-19T02:31:23.527Z,17.90
2018-10-19T02:33:51.956Z,17.07
2018-10-19T02:36:20.375Z,16.83
2018-10-19T02:38:48.819Z,18.13
2018-10-19T02:41:17.302Z,14.53
2018-10-19T02:43:45.771Z,17.73
2018-10-19T02:46:14.199Z,17.37
2018-10-19T02:48:42.608Z,18.47
2018-10-19T02:51:11.081Z,24.50
2018-10-19T02:53:39.438Z,19.30
2018-10-19T02:56:07.850Z,17.43
2018-10-19T02:58:36.243Z,17.60
2018-10-19T03:01:04.722Z,19.93
2018-10-19T03:03:33.135Z,17.03
2018-10-19T03:06:01.682Z,14.17
2018-10-19T03:08:30.076Z,20.47
2018-10-19T03:10:58.508Z,17.50
2018-10-19T03:13:26.912Z,14.37
2018-10-19T03:15:55.350Z,17.00
2018-10-19T03:18:23.750Z,18.50
2018-10-19T03:20:52.178Z,16.20
2018-10-19T03:23:20.578Z,16.00
2018-10-19T03:25:49.011Z,18.93
2018-10-19T03:28:17.460Z,15.90
2018-10-19T03:30:45.899Z,17.83
2018-10-19T03:33:14.373Z,16.67
2018-10-19T03:35:42.738Z,15.90
2018-10-19T03:38:11.158Z,18.13
2018-10-19T03:40:39.580Z,17.30
2018-10-19T03:43:08.024Z,15.17
2018-10-19T03:45:36.521Z,19.50
2018-10-19T03:48:05.234Z,14.13
2018-10-19T03:50:33.727Z,20.47
2018-10-19T03:53:02.210Z,20.07
2018-10-19T03:55:30.571Z,16.70
2018-10-19T03:57:58.974Z,19.40
2018-10-19T04:00:27.466Z,15.23
2018-10-19T04:02:56.343Z,19.00
2018-10-19T04:05:25.523Z,14.37
2018-10-19T04:07:54.011Z,12.90
2018-10-19T04:10:22.795Z,15.33
2018-10-19T04:12:51.340Z,17.67
2018-10-19T04:15:19.868Z,17.60
2018-10-19T04:17:48.237Z,17.07
2018-10-19T04:20:16.655Z,16.93
2018-10-19T04:22:45.047Z,14.50
2018-10-19T04:25:13.478Z,16.20
2018-10-19T04:27:41.914Z,17.20
2018-10-19T04:30:10.346Z,16.50
2018-10-19T04:32:38.749Z,16.47
2018-10-19T04:35:07.279Z,20.67
2018-10-19T04:37:35.768Z,16.47
2018-10-19T04:40:04.334Z,18.00
2018-10-19T04:42:32.728Z,19.80
2018-10-19T04:45:01.171Z,22.13
2018-10-19T04:47:29.635Z,18.17
2018-10-19T04:49:58.022Z,17.20
2018-10-19T04:52:26.430Z,22.40
2018-10-19T04:54:54.854Z,18.13
2018-10-19T04:57:25.326Z,19.53
2018-10-19T04:59:53.808Z,20.30
2018-10-19T05:02:22.275Z,21.00
2018-10-19T05:04:50.805Z,21.30
2018-10-19T05:07:19.143Z,20.53
2018-10-19T05:09:47.583Z,18.43
2018-10-19T05:12:15.978Z,18.00
2018-10-19T05:14:44.420Z,20.53
2018-10-19T05:17:12.805Z,18.90
2018-10-19T05:19:41.142Z,19.27
2018-10-19T05:22:09.495Z,19.90
2018-10-19T05:24:37.964Z,21.97
2018-10-19T05:27:06.293Z,19.60
2018-10-19T05:29:34.675Z,20.47
2018-10-19T05:32:03.115Z,22.77
2018-10-19T05:34:31.439Z,20.30
2018-10-19T05:36:59.778Z,21.93
2018-10-19T05:39:28.178Z,26.03
2018-10-19T05:41:56.531Z,23.47
2018-10-19T05:44:24.903Z,27.07
2018-10-19T05:46:53.273Z,26.80
2018-10-19T05:49:21.662Z,26.20
2018-10-19T05:51:50.035Z,24.90
2018-10-19T05:54:18.374Z,23.13
2018-10-19T05:56:46.747Z,21.73
2018-10-19T05:59:15.097Z,25.70
2018-10-19T06:01:43.524Z,24.10
2018-10-19T06:04:11.871Z,17.57
2018-10-19T06:06:40.250Z,24.97
2018-10-19T06:09:09.851Z,27.60
2018-10-19T06:11:56.516Z,26.50
2018-10-19T06:14:24.958Z,24.77
2018-10-19T06:16:53.540Z,23.83
2018-10-19T06:19:21.921Z,25.13
2018-10-19T06:21:51.863Z,25.53
2018-10-19T06:24:20.723Z,24.30
2018-10-19T06:26:49.306Z,24.60
2018-10-19T06:29:17.890Z,22.73
2018-10-19T06:31:46.337Z,27.40
2018-10-19T06:34:14.702Z,23.93
2018-10-19T06:36:43.562Z,25.67
2018-10-19T06:39:12.529Z,21.40
2018-10-19T06:41:41.143Z,31.10
2018-10-19T06:44:09.535Z,26.17
2018-10-19T06:46:37.975Z,25.80
2018-10-19T06:49:06.644Z,23.63
2018-10-19T06:51:35.305Z,24.50
2018-10-19T06:54:03.891Z,21.77
2018-10-19T06:56:32.319Z,26.40
2018-10-19T07:02:06.025Z,26.57
2018-10-19T07:04:34.495Z,32.80
2018-10-19T07:07:03.579Z,24.50
2018-10-19T07:09:32.271Z,29.00
2018-10-19T07:12:00.915Z,24.50
2018-10-19T07:14:29.343Z,27.50
2018-10-19T07:16:57.892Z,25.33
2018-10-19T07:19:26.299Z,28.30
2018-10-19T07:21:54.762Z,23.90
2018-10-19T07:24:23.108Z,24.40
2018-10-19T07:26:51.546Z,25.80
2018-10-19T07:29:20.028Z,29.77
2018-10-19T07:31:48.711Z,28.03
2018-10-19T07:34:17.071Z,26.27
2018-10-19T07:36:45.613Z,25.50
2018-10-19T07:39:14.037Z,28.03
2018-10-19T07:41:42.586Z,24.67
2018-10-19T07:44:11.113Z,27.17
2018-10-19T07:46:39.519Z,28.40
2018-10-19T07:49:07.934Z,27.60
2018-10-19T07:51:36.396Z,29.00
2018-10-19T07:54:04.905Z,25.40
2018-10-19T07:56:33.286Z,26.30
2018-10-19T07:59:01.842Z,27.53
2018-10-19T08:01:30.219Z,26.87
2018-10-19T08:03:58.623Z,23.80
2018-10-19T08:06:27.028Z,24.37
2018-10-19T08:08:55.433Z,24.83
2018-10-19T08:11:23.888Z,24.93
2018-10-19T08:13:52.210Z,22.77
2018-10-19T08:16:20.622Z,23.60
2018-10-19T08:18:49.014Z,24.80
2018-10-19T08:21:17.524Z,23.57
2018-10-19T08:23:45.991Z,24.93
2018-10-19T08:26:14.437Z,21.50
2018-10-19T08:28:43.082Z,23.27
2018-10-19T08:31:11.656Z,21.53
2018-10-19T08:33:40.302Z,28.03
2018-10-19T08:36:08.675Z,31.17
2018-10-19T08:38:37.056Z,28.33
2018-10-19T08:41:05.607Z,21.03
2018-10-19T08:43:33.958Z,24.33
2018-10-19T08:46:38.360Z,23.50
2018-10-19T08:49:08.424Z,22.20
2018-10-19T08:51:36.769Z,26.30
2018-10-19T08:54:05.363Z,22.10
2018-10-19T08:56:33.754Z,24.57
2018-10-19T08:59:02.205Z,25.90
2018-10-19T09:01:30.533Z,22.13
2018-10-19T09:03:58.918Z,23.90
2018-10-19T09:06:27.290Z,19.90
2018-10-19T09:08:55.703Z,26.20
2018-10-19T09:11:24.262Z,18.70
2018-10-19T09:13:52.538Z,22.73
2018-10-19T09:16:20.971Z,20.40
2018-10-19T09:18:49.364Z,27.37
2018-10-19T09:21:17.891Z,22.33
2018-10-19T09:23:46.875Z,25.03
2018-10-19T09:26:15.276Z,20.97
2018-10-19T09:28:43.680Z,21.97
2018-10-19T09:31:14.682Z,23.63
2018-10-19T09:33:43.055Z,22.80
2018-10-19T09:36:11.568Z,19.60
2018-10-19T09:38:39.879Z,19.60
2018-10-19T09:41:08.347Z,21.20
2018-10-19T09:43:36.934Z,22.87
2018-10-19T09:46:05.434Z,23.53
2018-10-19T09:48:33.955Z,20.27
2018-10-19T09:51:02.468Z,22.40
2018-10-19T09:53:30.899Z,23.83
2018-10-19T09:55:59.309Z,22.60
2018-10-19T09:58:27.711Z,18.17
2018-10-19T10:00:57.428Z,22.63
2018-10-19T10:03:26.312Z,18.80
2018-10-19T10:05:54.816Z,22.17
2018-10-19T10:11:01.480Z,22.83
2018-10-19T10:13:29.855Z,20.87
2018-10-19T10:15:58.207Z,19.70
2018-10-19T10:18:26.579Z,20.07
2018-10-19T10:20:54.942Z,17.43
2018-10-19T10:23:23.319Z,22.10
2018-10-19T10:25:51.686Z,25.00
2018-10-19T10:28:20.074Z,19.70
2018-10-19T10:30:48.462Z,28.20
2018-10-19T10:33:16.843Z,19.23
2018-10-19T10:35:45.231Z,18.33
2018-10-19T10:38:13.626Z,19.50
2018-10-19T10:40:45.979Z,21.40
2018-10-19T10:43:14.511Z,20.07
2018-10-19T10:45:43.058Z,19.60
2018-10-19T10:48:11.874Z,16.87
2018-10-19T10:50:41.132Z,20.03
2018-10-19T10:55:55.799Z,23.97
2018-10-19T10:58:24.178Z,20.77
2018-10-19T11:00:52.564Z,21.77
2018-10-19T11:03:20.965Z,23.47
2018-10-19T11:05:49.379Z,18.20
2018-10-19T11:08:17.995Z,20.77
2018-10-19T11:13:29.250Z,19.40
2018-10-19T11:15:59.005Z,16.73
2018-10-19T11:18:28.959Z,25.17
2018-10-19T11:20:59.898Z,21.70
2018-10-19T11:23:28.606Z,23.97
2018-10-19T11:25:57.271Z,26.47
2018-10-19T11:28:26.066Z,22.60
2018-10-19T11:30:54.482Z,18.20
2018-10-19T11:33:22.832Z,28.30
2018-10-19T11:35:52.320Z,22.93
2018-10-19T11:38:20.777Z,22.63
2018-10-19T11:46:33.178Z,25.90
2018-10-19T11:49:01.708Z,26.73
2018-10-19T11:51:31.044Z,22.40
2018-10-19T12:09:00.344Z,25.03
2018-10-19T12:14:25.038Z,28.70
2018-10-19T12:18:04.914Z,34.47
2018-10-19T12:20:54.744Z,29.00
2018-10-19T12:23:23.071Z,25.90
2018-10-19T12:29:07.882Z,32.87
2018-10-19T12:31:51.591Z,24.97
2018-10-19T12:34:22.395Z,28.23
2018-10-19T12:41:10.843Z,26.40
2018-10-19T12:43:47.308Z,27.77
2018-10-19T12:46:28.794Z,26.47
2018-10-19T12:49:02.013Z,23.13
2018-10-19T12:51:47.764Z,25.93
2018-10-19T12:54:16.552Z,26.67
2018-10-19T12:56:45.008Z,26.37
2018-10-19T13:01:58.041Z,24.30
2018-10-19T13:08:41.220Z,24.17
2018-10-19T13:11:11.115Z,23.70
2018-10-19T13:19:37.707Z,25.77
2018-10-19T13:22:06.170Z,34.27
2018-10-19T13:24:34.637Z,26.40
2018-10-19T13:27:03.156Z,27.13
2018-10-19T13:29:31.614Z,27.90
2018-10-19T13:32:00.098Z,23.13
2018-10-19T13:34:28.611Z,24.20
2018-10-19T13:36:57.389Z,27.23
2018-10-19T13:39:26.211Z,27.17
2018-10-19T13:41:59.248Z,26.07
2018-10-19T13:44:28.704Z,29.40
2018-10-19T13:46:59.005Z,26.40
2018-10-19T13:49:27.374Z,27.63
2018-10-19T13:51:57.360Z,27.60
2018-10-19T13:54:30.683Z,28.10
2018-10-19T13:57:07.375Z,30.03
2018-10-19T13:59:58.158Z,28.40
2018-10-19T14:08:37.359Z,27.17
2018-10-19T14:11:05.902Z,28.97
2018-10-19T14:13:35.179Z,27.57
2018-10-19T14:19:18.514Z,22.77
2018-10-19T14:21:56.586Z,22.33
2018-10-19T14:27:12.359Z,25.40
2018-10-19T14:29:41.844Z,25.10
2018-10-19T14:32:19.273Z,24.53
2018-10-19T14:34:47.715Z,25.27
2018-10-19T14:37:19.128Z,34.33
2018-10-19T14:39:47.544Z,27.77
2018-10-19T14:42:16.086Z,24.80
2018-10-19T14:44:44.542Z,25.87
2018-10-19T14:47:13.053Z,22.73
2018-10-19T14:49:41.611Z,24.30
2018-10-19T14:52:10.027Z,24.87
2018-10-19T14:54:38.475Z,21.07
2018-10-19T14:57:07.002Z,23.60
2018-10-19T14:59:35.398Z,24.60
2018-10-19T15:02:03.890Z,26.10
2018-10-19T15:04:32.350Z,22.20
2018-10-19T15:07:01.047Z,23.33
2018-10-19T15:09:29.499Z,24.93
2018-10-19T15:11:57.935Z,26.20
2018-10-19T15:14:26.358Z,23.97
2018-10-19T15:16:55.042Z,23.00
2018-10-19T15:19:23.469Z,23.67
2018-10-19T15:21:52.012Z,22.23
2018-10-19T15:24:20.833Z,24.27
2018-10-19T15:26:49.346Z,27.57
2018-10-19T15:29:22.651Z,22.77
2018-10-19T15:31:52.571Z,21.53
2018-10-19T15:34:21.066Z,27.93
2018-10-19T15:36:50.476Z,25.40
2018-10-19T15:39:20.415Z,23.60
2018-10-19T15:41:49.080Z,24.70
2018-10-19T15:44:17.889Z,24.43
2018-10-19T15:46:46.356Z,25.80
2018-10-19T15:49:14.815Z,24.47
2018-10-19T15:51:43.242Z,26.80
2018-10-19T15:54:11.709Z,25.37
2018-10-19T15:56:40.081Z,25.00
2018-10-19T15:59:08.606Z,22.97
2018-10-19T16:01:37.159Z,24.87
2018-10-19T16:04:05.747Z,26.00
2018-10-19T16:06:34.074Z,22.80
2018-10-19T16:09:02.619Z,22.47
2018-10-19T16:11:30.924Z,25.10
2018-10-19T16:13:59.319Z,21.83
2018-10-19T16:16:27.686Z,26.47
2018-10-19T16:18:56.085Z,23.70
2018-10-19T16:21:24.426Z,27.53
2018-10-19T16:23:52.805Z,26.43
2018-10-19T16:26:21.215Z,28.10
2018-10-19T16:28:49.622Z,26.83
2018-10-19T16:31:18.367Z,25.47
2018-10-19T16:33:47.303Z,35.17
2018-10-19T16:36:15.897Z,25.53
2018-10-19T16:38:44.362Z,30.53
2018-10-19T16:41:12.902Z,27.07
2018-10-19T16:43:41.414Z,24.80
2018-10-19T16:46:10.067Z,28.20
2018-10-19T16:48:38.527Z,27.23
2018-10-19T16:51:07.156Z,27.27
2018-10-19T16:53:35.716Z,31.13
2018-10-19T16:56:04.094Z,31.97
2018-10-19T16:58:33.509Z,30.10
2018-10-19T17:01:02.287Z,25.87
2018-10-19T17:03:30.794Z,29.20
2018-10-19T17:05:59.145Z,30.23
2018-10-19T17:08:27.765Z,31.30
2018-10-19T17:10:56.276Z,32.37
2018-10-19T17:13:25.735Z,33.37
2018-10-19T17:15:54.378Z,38.00
2018-10-19T17:18:22.811Z,35.47
2018-10-19T17:20:51.307Z,38.23
2018-10-19T17:23:19.751Z,33.60
2018-10-19T17:25:48.182Z,31.73
2018-10-19T17:28:16.675Z,32.70
2018-10-19T17:30:45.186Z,32.30
2018-10-19T17:33:13.741Z,32.93
2018-10-19T17:35:42.279Z,34.27
2018-10-19T17:38:10.730Z,30.73
2018-10-19T17:40:39.176Z,30.70
2018-10-19T17:43:07.648Z,33.60
2018-10-19T17:45:36.196Z,33.73
2018-10-19T17:48:04.744Z,34.23
2018-10-19T17:50:33.191Z,33.23
2018-10-19T17:53:01.672Z,32.13
2018-10-19T17:55:30.127Z,32.63
2018-10-19T17:57:58.569Z,39.43
2018-10-19T18:00:26.956Z,34.57
2018-10-19T18:02:55.375Z,29.00
2018-10-19T18:05:23.789Z,35.87
2018-10-19T18:07:52.170Z,33.73
2018-10-19T18:10:20.580Z,37.67
2018-10-19T18:12:48.914Z,37.17
2018-10-19T18:15:17.284Z,32.43
2018-10-19T18:17:45.682Z,34.40
2018-10-19T18:20:14.058Z,33.83
2018-10-19T18:22:42.540Z,38.07
2018-10-19T18:25:10.868Z,30.37
2018-10-19T18:27:39.225Z,36.10
2018-10-19T18:30:07.994Z,39.80
2018-10-19T18:32:37.198Z,37.97
2018-10-19T18:35:07.036Z,36.60
2018-10-19T18:37:35.354Z,40.37
2018-10-19T18:40:03.864Z,35.27
2018-10-19T18:42:32.205Z,37.53
2018-10-19T18:45:00.627Z,37.33
2018-10-19T18:47:28.987Z,41.67
2018-10-19T18:49:57.461Z,37.70
2018-10-19T18:52:25.827Z,35.00
2018-10-19T18:54:54.287Z,35.60
2018-10-19T18:57:22.729Z,38.53
2018-10-19T18:59:51.126Z,39.50
2018-10-19T19:02:19.476Z,38.63
2018-10-19T19:04:47.948Z,43.77
2018-10-19T19:07:16.384Z,34.17
2018-10-19T19:09:48.902Z,37.43
2018-10-19T19:12:17.355Z,34.90
2018-10-19T19:14:45.846Z,33.63
2018-10-19T19:17:14.367Z,32.60
2018-10-19T19:19:42.731Z,32.20
2018-10-19T19:22:11.118Z,33.63
2018-10-19T19:24:44.738Z,32.37
2018-10-19T19:27:13.198Z,38.13
2018-10-19T19:29:41.542Z,31.03
2018-10-19T19:32:10.038Z,32.87
2018-10-19T19:34:38.363Z,36.67
2018-10-19T19:37:06.772Z,29.13
2018-10-19T19:39:35.124Z,30.03
2018-10-19T19:42:08.738Z,27.60
2018-10-19T19:44:37.212Z,31.33
2018-10-19T19:47:06.011Z,29.80
2018-10-19T19:49:37.086Z,32.13
2018-10-19T19:52:05.646Z,32.73
2018-10-19T19:54:34.088Z,32.93
2018-10-19T19:57:02.587Z,28.37
2018-10-19T19:59:30.960Z,32.50
2018-10-19T20:01:59.386Z,33.93
2018-10-19T20:04:27.735Z,32.27
2018-10-19T20:06:56.126Z,31.10
2018-10-19T20:09:24.462Z,29.37
2018-10-19T20:11:52.946Z,33.97
2018-10-19T20:14:21.332Z,30.60
2018-10-19T20:16:49.695Z,31.63
2018-10-19T20:19:18.046Z,32.90
2018-10-19T20:21:46.394Z,32.10
2018-10-19T20:24:14.925Z,30.50
2018-10-19T20:26:43.270Z,29.30
2018-10-19T20:29:11.689Z,30.10
2018-10-19T20:31:39.982Z,32.13
2018-10-19T20:34:08.395Z,29.03
2018-10-19T20:36:36.802Z,35.13
2018-10-19T20:39:07.635Z,33.13
2018-10-19T20:41:36.040Z,28.07
2018-10-19T20:44:04.506Z,29.20
2018-10-19T20:46:32.935Z,32.73
2018-10-19T20:49:01.382Z,29.87
2018-10-19T20:51:29.782Z,31.77
2018-10-19T20:53:58.225Z,30.60
2018-10-19T20:56:26.622Z,28.57
2018-10-19T20:58:55.155Z,30.30
2018-10-19T21:01:23.686Z,35.80
2018-10-19T21:03:52.160Z,35.80
2018-10-19T21:06:20.690Z,35.00
2018-10-19T21:08:49.325Z,34.80
2018-10-19T21:11:17.796Z,32.07
2018-10-19T21:13:46.170Z,33.30
2018-10-19T21:16:14.550Z,31.67
2018-10-19T21:18:42.954Z,29.20
2018-10-19T21:21:11.329Z,31.63
2018-10-19T21:23:39.795Z,29.27
2018-10-19T21:26:08.246Z,31.93
2018-10-19T21:28:36.604Z,33.50
2018-10-19T21:31:05.386Z,27.17
2018-10-19T21:33:33.826Z,35.17
2018-10-19T21:36:02.237Z,29.47
2018-10-19T21:38:30.648Z,34.10
2018-10-19T21:40:59.089Z,34.87
2018-10-19T21:43:27.475Z,33.73
2018-10-19T21:45:55.850Z,33.50
2018-10-19T21:48:24.323Z,29.90
2018-10-19T21:50:52.708Z,31.13
2018-10-19T21:53:21.122Z,33.37
2018-10-19T21:55:49.514Z,33.07
2018-10-19T21:58:17.909Z,29.60
2018-10-19T22:00:46.298Z,29.70
2018-10-19T22:03:14.695Z,36.77
2018-10-19T22:05:43.074Z,34.80
2018-10-19T22:08:11.535Z,33.23
2018-10-19T22:10:39.919Z,32.97
2018-10-19T22:13:08.370Z,32.13
2018-10-19T22:15:36.734Z,31.60
2018-10-19T22:18:05.322Z,30.53
2018-10-19T22:20:33.702Z,31.70
2018-10-19T22:23:02.116Z,35.83
2018-10-19T22:25:30.423Z,34.87
2018-10-19T22:27:58.774Z,31.80
2018-10-19T22:30:27.109Z,34.73
2018-10-19T22:32:55.466Z,33.27
2018-10-19T22:35:23.790Z,37.13
2018-10-19T22:37:52.135Z,36.10
2018-10-19T22:40:20.478Z,30.47
2018-10-19T22:42:48.800Z,29.60
2018-10-19T22:45:17.157Z,29.10
2018-10-19T22:47:45.510Z,36.23
2018-10-19T22:50:13.893Z,29.60
2018-10-19T22:52:42.223Z,26.53
2018-10-19T22:55:10.656Z,31.80
2018-10-19T22:57:38.921Z,31.97
2018-10-19T23:00:07.610Z,29.20
2018-10-19T23:02:36.071Z,31.80
2018-10-19T23:05:04.856Z,26.50
2018-10-19T23:07:33.182Z,28.90
2018-10-19T23:10:01.567Z,28.03
2018-10-19T23:12:29.953Z,31.17
2018-10-19T23:14:58.350Z,28.33
2018-10-19T23:17:26.688Z,29.10
2018-10-19T23:19:55.066Z,35.70
2018-10-19T23:22:23.398Z,33.03
2018-10-19T23:24:51.845Z,33.53
2018-10-19T23:27:20.186Z,30.27
2018-10-19T23:29:48.538Z,34.20
2018-10-19T23:32:16.880Z,34.47
2018-10-19T23:34:45.289Z,32.93
2018-10-19T23:37:13.754Z,35.57
2018-10-19T23:39:42.007Z,34.20
2018-10-19T23:42:10.338Z,35.70
2018-10-19T23:44:39.798Z,40.30
2018-10-19T23:47:08.160Z,37.07
2018-10-19T23:49:36.502Z,38.43
2018-10-19T23:52:05.094Z,35.40
2018-10-19T23:54:33.457Z,36.43
2018-10-19T23:57:01.821Z,37.70
2018-10-19T23:59:30.180Z,33.80
